< < Back
Terminal Aerodrome Forecast


Current Version              Previous Versions:   1  2  3  4  5  6  7  8  9  

Terminal Aerodrome Forecast

980
FTUS42 KTAE 071743
TAFVLD
TAF
KVLD 071743Z 0718/0818 VRB04KT P6SM SCT040
      TEMPO 0720/0724 P6SM TSRA BKN050CB
     FM080000 00000KT P6SM BKN250=

Latest METAR

923
SAUS70 KWBC 071700 RRL
MTRVLD
METAR KVLD 071653Z VRB04KT 10SM FEW080 32/21 A3018 RMK AO2 SLP224
T03170211


USA.gov is the U.S. government's official web portal to all federal, state and local government web resources and services.